sensor_id;sensor_type;location;lat;lon;timestamp;P1;P2;P0
77481;PMS5003;66582;43.004;-75.010;2023-02-28T00:01:14;10;8;
77481;PMS5003;66582;43.004;-75.010;2023-02-28T00:03:40;8;7;
77481;PMS5003;66582;43.004;-75.010;2023-02-28T00:06:06;9;8;
77481;PMS5003;66582;43.004;-75.010;2023-02-28T00:08:31;8;7;
77481;PMS5003;66582;43.004;-75.010;2023-02-28T00:10:55;8;8;
77481;PMS5003;66582;43.004;-75.010;2023-02-28T00:13:20;10;8;
77481;PMS5003;66582;43.004;-75.010;2023-02-28T00:15:46;8;8;
77481;PMS5003;66582;43.004;-75.010;2023-02-28T00:18:11;9;9;
77481;PMS5003;66582;43.004;-75.010;2023-02-28T00:20:36;8;8;
77481;PMS5003;66582;43.004;-75.010;2023-02-28T00:23:02;8;8;
77481;PMS5003;66582;43.004;-75.010;2023-02-28T00:25:26;10;8;
77481;PMS5003;66582;43.004;-75.010;2023-02-28T00:27:52;9;9;
77481;PMS5003;66582;43.004;-75.010;2023-02-28T00:30:17;12;9;
77481;PMS5003;66582;43.004;-75.010;2023-02-28T00:32:42;8;7;
77481;PMS5003;66582;43.004;-75.010;2023-02-28T00:35:08;10;10;
77481;PMS5003;66582;43.004;-75.010;2023-02-28T00:37:33;11;11;
77481;PMS5003;66582;43.004;-75.010;2023-02-28T00:39:58;8;7;
77481;PMS5003;66582;43.004;-75.010;2023-02-28T00:42:23;9;8;
77481;PMS5003;66582;43.004;-75.010;2023-02-28T00:44:50;7;7;
77481;PMS5003;66582;43.004;-75.010;2023-02-28T00:47:14;8;7;
77481;PMS5003;66582;43.004;-75.010;2023-02-28T00:49:39;8;7;
77481;PMS5003;66582;43.004;-75.010;2023-02-28T00:52:05;8;8;
77481;PMS5003;66582;43.004;-75.010;2023-02-28T00:54:30;11;8;
77481;PMS5003;66582;43.004;-75.010;2023-02-28T00:56:55;9;7;
77481;PMS5003;66582;43.004;-75.010;2023-02-28T00:59:21;8;7;
77481;PMS5003;66582;43.004;-75.010;2023-02-28T01:01:46;7;7;
77481;PMS5003;66582;43.004;-75.010;2023-02-28T01:04:11;8;7;
77481;PMS5003;66582;43.004;-75.010;2023-02-28T01:06:36;8;8;
77481;PMS5003;66582;43.004;-75.010;2023-02-28T01:09:01;7;7;
77481;PMS5003;66582;43.004;-75.010;2023-02-28T01:11:26;7;7;
77481;PMS5003;66582;43.004;-75.010;2023-02-28T01:13:51;12;9;
77481;PMS5003;66582;43.004;-75.010;2023-02-28T01:16:17;7;7;
77481;PMS5003;66582;43.004;-75.010;2023-02-28T01:18:42;9;9;
77481;PMS5003;66582;43.004;-75.010;2023-02-28T01:21:09;15;13;
77481;PMS5003;66582;43.004;-75.010;2023-02-28T01:23:33;13;13;
77481;PMS5003;66582;43.004;-75.010;2023-02-28T01:26:03;11;11;
77481;PMS5003;66582;43.004;-75.010;2023-02-28T01:28:23;11;11;
77481;PMS5003;66582;43.004;-75.010;2023-02-28T01:30:49;11;11;
77481;PMS5003;66582;43.004;-75.010;2023-02-28T01:33:15;11;10;
77481;PMS5003;66582;43.004;-75.010;2023-02-28T01:35:39;13;12;
77481;PMS5003;66582;43.004;-75.010;2023-02-28T01:38:05;12;10;
77481;PMS5003;66582;43.004;-75.010;2023-02-28T01:40:30;12;12;
77481;PMS5003;66582;43.004;-75.010;2023-02-28T01:42:55;10;10;
77481;PMS5003;66582;43.004;-75.010;2023-02-28T01:45:22;11;11;
77481;PMS5003;66582;43.004;-75.010;2023-02-28T01:47:46;15;13;
77481;PMS5003;66582;43.004;-75.010;2023-02-28T01:50:12;15;12;
77481;PMS5003;66582;43.004;-75.010;2023-02-28T01:52:36;8;8;
77481;PMS5003;66582;43.004;-75.010;2023-02-28T01:55:02;13;11;
77481;PMS5003;66582;43.004;-75.010;2023-02-28T01:57:28;16;13;
77481;PMS5003;66582;43.004;-75.010;2023-02-28T01:59:54;12;12;
77481;PMS5003;66582;43.004;-75.010;2023-02-28T02:02:19;16;13;
77481;PMS5003;66582;43.004;-75.010;2023-02-28T02:04:44;13;12;
77481;PMS5003;66582;43.004;-75.010;2023-02-28T02:07:08;11;11;
77481;PMS5003;66582;43.004;-75.010;2023-02-28T02:09:33;10;10;
77481;PMS5003;66582;43.004;-75.010;2023-02-28T02:11:59;13;12;
77481;PMS5003;66582;43.004;-75.010;2023-02-28T02:14:30;12;12;
77481;PMS5003;66582;43.004;-75.010;2023-02-28T02:16:53;15;13;
77481;PMS5003;66582;43.004;-75.010;2023-02-28T02:19:19;18;16;
77481;PMS5003;66582;43.004;-75.010;2023-02-28T02:24:16;15;13;
77481;PMS5003;66582;43.004;-75.010;2023-02-28T02:29:02;16;13;
77481;PMS5003;66582;43.004;-75.010;2023-02-28T02:31:27;12;12;
77481;PMS5003;66582;43.004;-75.010;2023-02-28T02:36:13;13;13;
77481;PMS5003;66582;43.004;-75.010;2023-02-28T02:38:38;11;11;
77481;PMS5003;66582;43.004;-75.010;2023-02-28T02:41:04;13;13;
77481;PMS5003;66582;43.004;-75.010;2023-02-28T02:43:29;16;12;
77481;PMS5003;66582;43.004;-75.010;2023-02-28T02:45:54;11;11;
77481;PMS5003;66582;43.004;-75.010;2023-02-28T02:48:19;13;12;
77481;PMS5003;66582;43.004;-75.010;2023-02-28T02:50:45;15;13;
77481;PMS5003;66582;43.004;-75.010;2023-02-28T02:53:09;12;11;
77481;PMS5003;66582;43.004;-75.010;2023-02-28T02:55:35;15;12;
77481;PMS5003;66582;43.004;-75.010;2023-02-28T02:58:01;13;12;
77481;PMS5003;66582;43.004;-75.010;2023-02-28T03:00:26;12;11;
77481;PMS5003;66582;43.004;-75.010;2023-02-28T03:02:50;16;12;
77481;PMS5003;66582;43.004;-75.010;2023-02-28T03:05:17;10;10;
77481;PMS5003;66582;43.004;-75.010;2023-02-28T03:07:40;12;11;
77481;PMS5003;66582;43.004;-75.010;2023-02-28T03:12:32;11;11;
77481;PMS5003;66582;43.004;-75.010;2023-02-28T03:14:58;15;11;
77481;PMS5003;66582;43.004;-75.010;2023-02-28T03:17:25;11;11;
77481;PMS5003;66582;43.004;-75.010;2023-02-28T03:19:51;13;12;
77481;PMS5003;66582;43.004;-75.010;2023-02-28T03:22:15;13;12;
77481;PMS5003;66582;43.004;-75.010;2023-02-28T03:24:40;11;11;
77481;PMS5003;66582;43.004;-75.010;2023-02-28T03:27:05;11;11;
77481;PMS5003;66582;43.004;-75.010;2023-02-28T03:29:30;9;9;
77481;PMS5003;66582;43.004;-75.010;2023-02-28T03:31:54;12;11;
77481;PMS5003;66582;43.004;-75.010;2023-02-28T03:34:21;13;13;
77481;PMS5003;66582;43.004;-75.010;2023-02-28T03:36:44;9;9;
77481;PMS5003;66582;43.004;-75.010;2023-02-28T03:39:09;12;11;
77481;PMS5003;66582;43.004;-75.010;2023-02-28T03:41:36;8;8;
77481;PMS5003;66582;43.004;-75.010;2023-02-28T03:44:00;13;11;
77481;PMS5003;66582;43.004;-75.010;2023-02-28T03:46:25;11;11;
77481;PMS5003;66582;43.004;-75.010;2023-02-28T03:48:52;13;12;
77481;PMS5003;66582;43.004;-75.010;2023-02-28T03:51:16;11;11;
77481;PMS5003;66582;43.004;-75.010;2023-02-28T03:53:42;11;11;
77481;PMS5003;66582;43.004;-75.010;2023-02-28T03:56:07;8;8;
77481;PMS5003;66582;43.004;-75.010;2023-02-28T03:58:32;9;9;
77481;PMS5003;66582;43.004;-75.010;2023-02-28T04:00:58;11;9;
77481;PMS5003;66582;43.004;-75.010;2023-02-28T04:03:21;9;9;
77481;PMS5003;66582;43.004;-75.010;2023-02-28T04:05:48;8;8;
77481;PMS5003;66582;43.004;-75.010;2023-02-28T04:08:12;13;13;
77481;PMS5003;66582;43.004;-75.010;2023-02-28T04:10:38;11;11;
77481;PMS5003;66582;43.004;-75.010;2023-02-28T04:13:03;8;8;
77481;PMS5003;66582;43.004;-75.010;2023-02-28T04:15:28;12;11;
77481;PMS5003;66582;43.004;-75.010;2023-02-28T04:17:53;8;8;
77481;PMS5003;66582;43.004;-75.010;2023-02-28T04:20:18;13;12;
77481;PMS5003;66582;43.004;-75.010;2023-02-28T04:22:44;11;11;
77481;PMS5003;66582;43.004;-75.010;2023-02-28T04:25:09;13;13;
77481;PMS5003;66582;43.004;-75.010;2023-02-28T04:27:34;12;12;
77481;PMS5003;66582;43.004;-75.010;2023-02-28T04:29:59;12;12;
77481;PMS5003;66582;43.004;-75.010;2023-02-28T04:32:25;9;9;
77481;PMS5003;66582;43.004;-75.010;2023-02-28T04:34:50;13;12;
77481;PMS5003;66582;43.004;-75.010;2023-02-28T04:37:16;16;16;
77481;PMS5003;66582;43.004;-75.010;2023-02-28T04:39:40;11;11;
77481;PMS5003;66582;43.004;-75.010;2023-02-28T04:42:05;14;12;
77481;PMS5003;66582;43.004;-75.010;2023-02-28T04:44:31;14;13;
77481;PMS5003;66582;43.004;-75.010;2023-02-28T04:46:56;13;12;
77481;PMS5003;66582;43.004;-75.010;2023-02-28T04:49:22;13;13;
77481;PMS5003;66582;43.004;-75.010;2023-02-28T04:51:47;13;11;
77481;PMS5003;66582;43.004;-75.010;2023-02-28T04:54:13;13;12;
77481;PMS5003;66582;43.004;-75.010;2023-02-28T04:56:38;13;11;
77481;PMS5003;66582;43.004;-75.010;2023-02-28T04:59:03;12;11;
77481;PMS5003;66582;43.004;-75.010;2023-02-28T05:01:29;12;11;
77481;PMS5003;66582;43.004;-75.010;2023-02-28T05:03:54;12;11;
77481;PMS5003;66582;43.004;-75.010;2023-02-28T05:06:20;13;13;
77481;PMS5003;66582;43.004;-75.010;2023-02-28T05:08:45;14;12;
77481;PMS5003;66582;43.004;-75.010;2023-02-28T05:11:13;12;11;
77481;PMS5003;66582;43.004;-75.010;2023-02-28T05:13:35;9;9;
77481;PMS5003;66582;43.004;-75.010;2023-02-28T05:16:01;8;8;
77481;PMS5003;66582;43.004;-75.010;2023-02-28T05:18:27;11;9;
77481;PMS5003;66582;43.004;-75.010;2023-02-28T05:20:52;12;12;
77481;PMS5003;66582;43.004;-75.010;2023-02-28T05:23:17;9;9;
77481;PMS5003;66582;43.004;-75.010;2023-02-28T05:25:43;12;9;
77481;PMS5003;66582;43.004;-75.010;2023-02-28T05:28:07;11;11;
77481;PMS5003;66582;43.004;-75.010;2023-02-28T05:30:33;12;11;
77481;PMS5003;66582;43.004;-75.010;2023-02-28T05:32:58;9;9;
77481;PMS5003;66582;43.004;-75.010;2023-02-28T05:35:26;11;11;
77481;PMS5003;66582;43.004;-75.010;2023-02-28T05:37:48;11;9;
77481;PMS5003;66582;43.004;-75.010;2023-02-28T05:40:14;11;9;
77481;PMS5003;66582;43.004;-75.010;2023-02-28T05:42:39;13;13;
77481;PMS5003;66582;43.004;-75.010;2023-02-28T05:45:04;12;12;
77481;PMS5003;66582;43.004;-75.010;2023-02-28T05:47:30;12;12;
77481;PMS5003;66582;43.004;-75.010;2023-02-28T05:49:54;9;9;
77481;PMS5003;66582;43.004;-75.010;2023-02-28T05:52:19;13;13;
77481;PMS5003;66582;43.004;-75.010;2023-02-28T05:54:46;14;12;
77481;PMS5003;66582;43.004;-75.010;2023-02-28T05:57:10;13;12;
77481;PMS5003;66582;43.004;-75.010;2023-02-28T05:59:35;11;11;
77481;PMS5003;66582;43.004;-75.010;2023-02-28T06:02:00;11;11;
77481;PMS5003;66582;43.004;-75.010;2023-02-28T06:04:26;11;11;
77481;PMS5003;66582;43.004;-75.010;2023-02-28T06:06:51;11;11;
77481;PMS5003;66582;43.004;-75.010;2023-02-28T06:09:16;9;9;
77481;PMS5003;66582;43.004;-75.010;2023-02-28T06:11:41;11;9;
77481;PMS5003;66582;43.004;-75.010;2023-02-28T06:14:07;11;11;
77481;PMS5003;66582;43.004;-75.010;2023-02-28T06:16:33;14;13;
77481;PMS5003;66582;43.004;-75.010;2023-02-28T06:18:57;11;11;
77481;PMS5003;66582;43.004;-75.010;2023-02-28T06:21:22;10;10;
77481;PMS5003;66582;43.004;-75.010;2023-02-28T06:23:47;10;10;
77481;PMS5003;66582;43.004;-75.010;2023-02-28T06:26:12;12;10;
77481;PMS5003;66582;43.004;-75.010;2023-02-28T06:28:38;12;12;
77481;PMS5003;66582;43.004;-75.010;2023-02-28T06:31:06;16;13;
77481;PMS5003;66582;43.004;-75.010;2023-02-28T06:33:28;13;12;
77481;PMS5003;66582;43.004;-75.010;2023-02-28T06:35:53;12;12;
77481;PMS5003;66582;43.004;-75.010;2023-02-28T06:38:19;13;13;
77481;PMS5003;66582;43.004;-75.010;2023-02-28T06:40:44;11;9;
77481;PMS5003;66582;43.004;-75.010;2023-02-28T06:43:09;11;11;
77481;PMS5003;66582;43.004;-75.010;2023-02-28T06:45:34;11;11;
77481;PMS5003;66582;43.004;-75.010;2023-02-28T06:48:00;9;9;
77481;PMS5003;66582;43.004;-75.010;2023-02-28T06:50:25;8;8;
77481;PMS5003;66582;43.004;-75.010;2023-02-28T06:52:50;12;11;
77481;PMS5003;66582;43.004;-75.010;2023-02-28T06:55:15;11;10;
77481;PMS5003;66582;43.004;-75.010;2023-02-28T06:57:40;11;11;
77481;PMS5003;66582;43.004;-75.010;2023-02-28T07:00:06;11;11;
77481;PMS5003;66582;43.004;-75.010;2023-02-28T07:02:31;12;11;
77481;PMS5003;66582;43.004;-75.010;2023-02-28T07:04:56;11;11;
77481;PMS5003;66582;43.004;-75.010;2023-02-28T07:07:22;7;7;
77481;PMS5003;66582;43.004;-75.010;2023-02-28T07:09:47;8;7;
77481;PMS5003;66582;43.004;-75.010;2023-02-28T07:12:12;11;9;
77481;PMS5003;66582;43.004;-75.010;2023-02-28T07:14:37;9;8;
77481;PMS5003;66582;43.004;-75.010;2023-02-28T07:17:02;8;8;
77481;PMS5003;66582;43.004;-75.010;2023-02-28T07:19:28;9;9;
77481;PMS5003;66582;43.004;-75.010;2023-02-28T07:21:53;11;11;
77481;PMS5003;66582;43.004;-75.010;2023-02-28T07:24:18;7;7;
77481;PMS5003;66582;43.004;-75.010;2023-02-28T07:26:43;8;8;
77481;PMS5003;66582;43.004;-75.010;2023-02-28T07:29:09;13;12;
77481;PMS5003;66582;43.004;-75.010;2023-02-28T07:31:34;8;8;
77481;PMS5003;66582;43.004;-75.010;2023-02-28T07:33:59;7;7;
77481;PMS5003;66582;43.004;-75.010;2023-02-28T07:36:25;10;8;
77481;PMS5003;66582;43.004;-75.010;2023-02-28T07:38:50;8;8;
77481;PMS5003;66582;43.004;-75.010;2023-02-28T07:41:15;10;8;
77481;PMS5003;66582;43.004;-75.010;2023-02-28T07:43:40;8;8;
77481;PMS5003;66582;43.004;-75.010;2023-02-28T07:46:06;8;7;
77481;PMS5003;66582;43.004;-75.010;2023-02-28T07:48:31;11;11;
77481;PMS5003;66582;43.004;-75.010;2023-02-28T07:50:56;7;7;
77481;PMS5003;66582;43.004;-75.010;2023-02-28T07:53:21;9;9;
77481;PMS5003;66582;43.004;-75.010;2023-02-28T07:55:47;11;8;
77481;PMS5003;66582;43.004;-75.010;2023-02-28T07:58:11;7;7;
77481;PMS5003;66582;43.004;-75.010;2023-02-28T08:00:37;8;8;
77481;PMS5003;66582;43.004;-75.010;2023-02-28T08:03:02;8;8;
77481;PMS5003;66582;43.004;-75.010;2023-02-28T08:05:27;10;10;
77481;PMS5003;66582;43.004;-75.010;2023-02-28T08:07:52;7;7;
77481;PMS5003;66582;43.004;-75.010;2023-02-28T08:10:18;11;8;
77481;PMS5003;66582;43.004;-75.010;2023-02-28T08:12:43;11;11;
77481;PMS5003;66582;43.004;-75.010;2023-02-28T08:15:08;7;7;
77481;PMS5003;66582;43.004;-75.010;2023-02-28T08:17:33;8;8;
77481;PMS5003;66582;43.004;-75.010;2023-02-28T08:19:58;12;12;
77481;PMS5003;66582;43.004;-75.010;2023-02-28T08:22:24;10;10;
77481;PMS5003;66582;43.004;-75.010;2023-02-28T08:24:49;7;7;
77481;PMS5003;66582;43.004;-75.010;2023-02-28T08:27:14;7;6;
77481;PMS5003;66582;43.004;-75.010;2023-02-28T08:29:39;8;7;
77481;PMS5003;66582;43.004;-75.010;2023-02-28T08:32:05;8;8;
77481;PMS5003;66582;43.004;-75.010;2023-02-28T08:34:30;8;7;
77481;PMS5003;66582;43.004;-75.010;2023-02-28T08:36:55;5;5;
77481;PMS5003;66582;43.004;-75.010;2023-02-28T08:39:20;6;6;
77481;PMS5003;66582;43.004;-75.010;2023-02-28T08:41:45;8;7;
77481;PMS5003;66582;43.004;-75.010;2023-02-28T08:44:10;8;7;
77481;PMS5003;66582;43.004;-75.010;2023-02-28T08:46:36;8;7;
77481;PMS5003;66582;43.004;-75.010;2023-02-28T08:49:01;10;8;
77481;PMS5003;66582;43.004;-75.010;2023-02-28T08:51:26;8;8;
77481;PMS5003;66582;43.004;-75.010;2023-02-28T08:53:51;8;7;
77481;PMS5003;66582;43.004;-75.010;2023-02-28T08:56:16;10;8;
77481;PMS5003;66582;43.004;-75.010;2023-02-28T08:58:42;10;8;
77481;PMS5003;66582;43.004;-75.010;2023-02-28T09:01:08;7;6;
77481;PMS5003;66582;43.004;-75.010;2023-02-28T09:03:32;6;6;
77481;PMS5003;66582;43.004;-75.010;2023-02-28T09:05:58;7;7;
77481;PMS5003;66582;43.004;-75.010;2023-02-28T09:08:23;8;7;
77481;PMS5003;66582;43.004;-75.010;2023-02-28T09:10:48;6;6;
77481;PMS5003;66582;43.004;-75.010;2023-02-28T09:13:13;8;8;
77481;PMS5003;66582;43.004;-75.010;2023-02-28T09:15:38;7;6;
77481;PMS5003;66582;43.004;-75.010;2023-02-28T09:18:03;7;7;
77481;PMS5003;66582;43.004;-75.010;2023-02-28T09:20:29;7;7;
77481;PMS5003;66582;43.004;-75.010;2023-02-28T09:22:54;7;7;
77481;PMS5003;66582;43.004;-75.010;2023-02-28T09:25:19;6;6;
77481;PMS5003;66582;43.004;-75.010;2023-02-28T09:27:44;5;5;
77481;PMS5003;66582;43.004;-75.010;2023-02-28T09:30:10;6;6;
77481;PMS5003;66582;43.004;-75.010;2023-02-28T09:32:34;8;7;
77481;PMS5003;66582;43.004;-75.010;2023-02-28T09:35:00;7;7;
77481;PMS5003;66582;43.004;-75.010;2023-02-28T09:37:25;6;6;
77481;PMS5003;66582;43.004;-75.010;2023-02-28T09:39:50;5;5;
77481;PMS5003;66582;43.004;-75.010;2023-02-28T09:42:18;7;7;
77481;PMS5003;66582;43.004;-75.010;2023-02-28T09:44:42;5;5;
77481;PMS5003;66582;43.004;-75.010;2023-02-28T09:47:10;7;6;
77481;PMS5003;66582;43.004;-75.010;2023-02-28T09:49:33;7;7;
77481;PMS5003;66582;43.004;-75.010;2023-02-28T09:51:57;3;3;
77481;PMS5003;66582;43.004;-75.010;2023-02-28T09:54:22;7;6;
77481;PMS5003;66582;43.004;-75.010;2023-02-28T09:56:48;6;5;
77481;PMS5003;66582;43.004;-75.010;2023-02-28T09:59:14;9;6;
77481;PMS5003;66582;43.004;-75.010;2023-02-28T10:01:40;6;6;
77481;PMS5003;66582;43.004;-75.010;2023-02-28T10:04:04;5;5;
77481;PMS5003;66582;43.004;-75.010;2023-02-28T10:06:29;6;6;
77481;PMS5003;66582;43.004;-75.010;2023-02-28T10:08:55;5;5;
77481;PMS5003;66582;43.004;-75.010;2023-02-28T10:11:18;5;5;
77481;PMS5003;66582;43.004;-75.010;2023-02-28T10:13:48;5;5;
77481;PMS5003;66582;43.004;-75.010;2023-02-28T10:16:10;7;7;
77481;PMS5003;66582;43.004;-75.010;2023-02-28T10:18:38;9;7;
77481;PMS5003;66582;43.004;-75.010;2023-02-28T10:21:00;8;7;
77481;PMS5003;66582;43.004;-75.010;2023-02-28T10:23:25;7;5;
77481;PMS5003;66582;43.004;-75.010;2023-02-28T10:25:52;10;9;
77481;PMS5003;66582;43.004;-75.010;2023-02-28T10:28:16;5;5;
77481;PMS5003;66582;43.004;-75.010;2023-02-28T10:30:42;6;6;
77481;PMS5003;66582;43.004;-75.010;2023-02-28T10:33:08;6;6;
77481;PMS5003;66582;43.004;-75.010;2023-02-28T10:35:31;9;7;
77481;PMS5003;66582;43.004;-75.010;2023-02-28T10:37:58;7;7;
77481;PMS5003;66582;43.004;-75.010;2023-02-28T10:40:27;6;6;
77481;PMS5003;66582;43.004;-75.010;2023-02-28T10:45:13;5;5;
77481;PMS5003;66582;43.004;-75.010;2023-02-28T10:47:40;9;9;
77481;PMS5003;66582;43.004;-75.010;2023-02-28T10:50:03;9;6;
77481;PMS5003;66582;43.004;-75.010;2023-02-28T10:52:35;6;6;
77481;PMS5003;66582;43.004;-75.010;2023-02-28T10:54:54;5;5;
77481;PMS5003;66582;43.004;-75.010;2023-02-28T10:57:20;9;9;
77481;PMS5003;66582;43.004;-75.010;2023-02-28T10:59:45;7;7;
77481;PMS5003;66582;43.004;-75.010;2023-02-28T11:04:36;6;6;
77481;PMS5003;66582;43.004;-75.010;2023-02-28T11:07:01;5;5;
77481;PMS5003;66582;43.004;-75.010;2023-02-28T11:09:27;6;5;
77481;PMS5003;66582;43.004;-75.010;2023-02-28T11:11:51;6;6;
77481;PMS5003;66582;43.004;-75.010;2023-02-28T11:14:18;6;6;
77481;PMS5003;66582;43.004;-75.010;2023-02-28T11:16:41;7;5;
77481;PMS5003;66582;43.004;-75.010;2023-02-28T11:19:06;7;6;
77481;PMS5003;66582;43.004;-75.010;2023-02-28T11:21:33;7;5;
77481;PMS5003;66582;43.004;-75.010;2023-02-28T11:24:02;5;5;
77481;PMS5003;66582;43.004;-75.010;2023-02-28T11:28:48;5;5;
77481;PMS5003;66582;43.004;-75.010;2023-02-28T11:31:17;5;5;
77481;PMS5003;66582;43.004;-75.010;2023-02-28T11:33:40;3;3;
77481;PMS5003;66582;43.004;-75.010;2023-02-28T11:36:04;6;6;
77481;PMS5003;66582;43.004;-75.010;2023-02-28T11:38:28;6;5;
77481;PMS5003;66582;43.004;-75.010;2023-02-28T11:41:01;7;6;
77481;PMS5003;66582;43.004;-75.010;2023-02-28T11:43:22;6;6;
77481;PMS5003;66582;43.004;-75.010;2023-02-28T11:45:45;5;5;
77481;PMS5003;66582;43.004;-75.010;2023-02-28T11:48:10;6;6;
77481;PMS5003;66582;43.004;-75.010;2023-02-28T11:50:39;6;5;
77481;PMS5003;66582;43.004;-75.010;2023-02-28T11:53:00;5;3;
77481;PMS5003;66582;43.004;-75.010;2023-02-28T11:55:25;7;6;
77481;PMS5003;66582;43.004;-75.010;2023-02-28T11:57:58;9;6;
77481;PMS5003;66582;43.004;-75.010;2023-02-28T12:00:19;5;5;
77481;PMS5003;66582;43.004;-75.010;2023-02-28T12:02:46;6;5;
77481;PMS5003;66582;43.004;-75.010;2023-02-28T12:05:11;5;5;
77481;PMS5003;66582;43.004;-75.010;2023-02-28T12:07:33;5;5;
77481;PMS5003;66582;43.004;-75.010;2023-02-28T12:09:57;7;7;
77481;PMS5003;66582;43.004;-75.010;2023-02-28T12:12:23;5;5;
77481;PMS5003;66582;43.004;-75.010;2023-02-28T12:14:50;7;6;
77481;PMS5003;66582;43.004;-75.010;2023-02-28T12:17:15;7;7;
77481;PMS5003;66582;43.004;-75.010;2023-02-28T12:19:38;6;6;
77481;PMS5003;66582;43.004;-75.010;2023-02-28T12:22:12;6;5;
77481;PMS5003;66582;43.004;-75.010;2023-02-28T12:24:31;3;3;
77481;PMS5003;66582;43.004;-75.010;2023-02-28T12:26:52;3;3;
77481;PMS5003;66582;43.004;-75.010;2023-02-28T12:29:19;7;6;
77481;PMS5003;66582;43.004;-75.010;2023-02-28T12:31:45;6;6;
77481;PMS5003;66582;43.004;-75.010;2023-02-28T12:34:10;6;5;
77481;PMS5003;66582;43.004;-75.010;2023-02-28T12:36:33;7;6;
77481;PMS5003;66582;43.004;-75.010;2023-02-28T12:38:59;3;3;
77481;PMS5003;66582;43.004;-75.010;2023-02-28T12:41:26;6;5;
77481;PMS5003;66582;43.004;-75.010;2023-02-28T12:43:51;6;5;
77481;PMS5003;66582;43.004;-75.010;2023-02-28T12:46:15;7;6;
77481;PMS5003;66582;43.004;-75.010;2023-02-28T12:48:41;3;3;
77481;PMS5003;66582;43.004;-75.010;2023-02-28T12:51:04;6;5;
77481;PMS5003;66582;43.004;-75.010;2023-02-28T12:53:31;6;5;
77481;PMS5003;66582;43.004;-75.010;2023-02-28T12:55:57;5;5;
77481;PMS5003;66582;43.004;-75.010;2023-02-28T12:58:20;5;5;
77481;PMS5003;66582;43.004;-75.010;2023-02-28T13:00:49;7;5;
77481;PMS5003;66582;43.004;-75.010;2023-02-28T13:05:39;6;5;
77481;PMS5003;66582;43.004;-75.010;2023-02-28T13:08:04;7;6;
77481;PMS5003;66582;43.004;-75.010;2023-02-28T13:12:52;6;3;
77481;PMS5003;66582;43.004;-75.010;2023-02-28T13:15:18;5;5;
77481;PMS5003;66582;43.004;-75.010;2023-02-28T13:17:41;5;5;
77481;PMS5003;66582;43.004;-75.010;2023-02-28T13:22:38;8;6;
77481;PMS5003;66582;43.004;-75.010;2023-02-28T13:24:57;7;5;
77481;PMS5003;66582;43.004;-75.010;2023-02-28T13:27:24;8;6;
77481;PMS5003;66582;43.004;-75.010;2023-02-28T13:29:48;6;6;
77481;PMS5003;66582;43.004;-75.010;2023-02-28T13:32:20;8;8;
77481;PMS5003;66582;43.004;-75.010;2023-02-28T13:34:39;6;6;
77481;PMS5003;66582;43.004;-75.010;2023-02-28T13:41:53;6;6;
77481;PMS5003;66582;43.004;-75.010;2023-02-28T13:44:19;8;8;
77481;PMS5003;66582;43.004;-75.010;2023-02-28T13:51:38;8;7;
77481;PMS5003;66582;43.004;-75.010;2023-02-28T13:54:00;7;6;
77481;PMS5003;66582;43.004;-75.010;2023-02-28T13:56:27;6;6;
77481;PMS5003;66582;43.004;-75.010;2023-02-28T13:58:52;6;6;
77481;PMS5003;66582;43.004;-75.010;2023-02-28T14:01:16;7;7;
77481;PMS5003;66582;43.004;-75.010;2023-02-28T14:03:44;6;6;
77481;PMS5003;66582;43.004;-75.010;2023-02-28T14:06:09;8;7;
77481;PMS5003;66582;43.004;-75.010;2023-02-28T14:08:30;4;4;
77481;PMS5003;66582;43.004;-75.010;2023-02-28T14:15:47;7;7;
77481;PMS5003;66582;43.004;-75.010;2023-02-28T14:18:15;6;6;
77481;PMS5003;66582;43.004;-75.010;2023-02-28T14:20:36;6;6;
77481;PMS5003;66582;43.004;-75.010;2023-02-28T14:23:03;6;6;
77481;PMS5003;66582;43.004;-75.010;2023-02-28T14:25:30;6;4;
77481;PMS5003;66582;43.004;-75.010;2023-02-28T14:27:54;7;7;
77481;PMS5003;66582;43.004;-75.010;2023-02-28T14:32:45;9;7;
77481;PMS5003;66582;43.004;-75.010;2023-02-28T14:35:13;6;6;
77481;PMS5003;66582;43.004;-75.010;2023-02-28T14:37:34;6;6;
77481;PMS5003;66582;43.004;-75.010;2023-02-28T14:39:58;6;6;
77481;PMS5003;66582;43.004;-75.010;2023-02-28T14:42:29;6;6;
77481;PMS5003;66582;43.004;-75.010;2023-02-28T14:44:53;9;7;
77481;PMS5003;66582;43.004;-75.010;2023-02-28T14:47:14;4;4;
77481;PMS5003;66582;43.004;-75.010;2023-02-28T14:49:42;7;6;
77481;PMS5003;66582;43.004;-75.010;2023-02-28T14:52:06;3;3;
77481;PMS5003;66582;43.004;-75.010;2023-02-28T14:54:29;4;4;
77481;PMS5003;66582;43.004;-75.010;2023-02-28T14:56:55;6;6;
77481;PMS5003;66582;43.004;-75.010;2023-02-28T14:59:24;6;6;
77481;PMS5003;66582;43.004;-75.010;2023-02-28T15:01:45;6;6;
77481;PMS5003;66582;43.004;-75.010;2023-02-28T15:04:14;6;6;
77481;PMS5003;66582;43.004;-75.010;2023-02-28T15:06:35;4;4;
77481;PMS5003;66582;43.004;-75.010;2023-02-28T15:09:07;4;4;
77481;PMS5003;66582;43.004;-75.010;2023-02-28T15:11:25;7;7;
77481;PMS5003;66582;43.004;-75.010;2023-02-28T15:13:52;7;6;
77481;PMS5003;66582;43.004;-75.010;2023-02-28T15:16:16;6;6;
77481;PMS5003;66582;43.004;-75.010;2023-02-28T15:18:43;6;6;
77481;PMS5003;66582;43.004;-75.010;2023-02-28T15:21:07;7;6;
77481;PMS5003;66582;43.004;-75.010;2023-02-28T15:23:31;8;7;
77481;PMS5003;66582;43.004;-75.010;2023-02-28T15:25:57;7;7;
77481;PMS5003;66582;43.004;-75.010;2023-02-28T15:28:22;6;6;
77481;PMS5003;66582;43.004;-75.010;2023-02-28T15:30:51;5;5;
77481;PMS5003;66582;43.004;-75.010;2023-02-28T15:35:37;8;7;
77481;PMS5003;66582;43.004;-75.010;2023-02-28T15:38:03;7;5;
77481;PMS5003;66582;43.004;-75.010;2023-02-28T15:40:28;4;4;
77481;PMS5003;66582;43.004;-75.010;2023-02-28T15:42:59;4;4;
77481;PMS5003;66582;43.004;-75.010;2023-02-28T15:47:44;5;5;
77481;PMS5003;66582;43.004;-75.010;2023-02-28T15:50:10;7;5;
77481;PMS5003;66582;43.004;-75.010;2023-02-28T15:52:34;7;7;
77481;PMS5003;66582;43.004;-75.010;2023-02-28T15:54:59;5;5;
77481;PMS5003;66582;43.004;-75.010;2023-02-28T15:57:25;8;7;
77481;PMS5003;66582;43.004;-75.010;2023-02-28T15:59:50;7;5;
77481;PMS5003;66582;43.004;-75.010;2023-02-28T16:02:15;7;5;
77481;PMS5003;66582;43.004;-75.010;2023-02-28T16:07:05;4;4;
77481;PMS5003;66582;43.004;-75.010;2023-02-28T16:09:30;7;7;
77481;PMS5003;66582;43.004;-75.010;2023-02-28T16:11:55;5;5;
77481;PMS5003;66582;43.004;-75.010;2023-02-28T16:14:20;7;7;
77481;PMS5003;66582;43.004;-75.010;2023-02-28T16:16:46;5;5;
77481;PMS5003;66582;43.004;-75.010;2023-02-28T16:19:10;7;7;
77481;PMS5003;66582;43.004;-75.010;2023-02-28T16:21:35;5;5;
77481;PMS5003;66582;43.004;-75.010;2023-02-28T16:24:01;7;5;
77481;PMS5003;66582;43.004;-75.010;2023-02-28T16:26:26;6;6;
77481;PMS5003;66582;43.004;-75.010;2023-02-28T16:28:52;8;8;
77481;PMS5003;66582;43.004;-75.010;2023-02-28T16:31:17;7;7;
77481;PMS5003;66582;43.004;-75.010;2023-02-28T16:33:43;10;9;
77481;PMS5003;66582;43.004;-75.010;2023-02-28T16:36:08;5;5;
77481;PMS5003;66582;43.004;-75.010;2023-02-28T16:38:33;7;7;
77481;PMS5003;66582;43.004;-75.010;2023-02-28T16:40:58;5;5;